Time;durP1;ratioP1;P1;durP2;ratioP2;P2;SDS_P1;SDS_P2;PMS_P1;PMS_P2;Temp;Humidity;BMP_temperature;BMP_pressure;BME280_temperature;BME280_humidity;BME280_pressure;Samples;Min_cycle;Max_cycle;Signal;HPM_P1;HPM_P2
2021/07/04 00:01:47;;;;;;;;;;;;;;;21.10;60.21;100092.94;5057353;28;1973;-43
2021/07/04 00:04:12;;;;;;;;;;;;;;;21.35;59.71;100083.09;5058041;28;836;-43
2021/07/04 00:06:38;;;;;;;;;;;;;;;21.40;59.85;100076.56;5057794;28;819;-46
2021/07/04 00:09:03;;;;;;;;;;;;;;;21.27;60.49;100083.88;5057352;28;764;-46
2021/07/04 00:11:29;;;;;;;;;;;;;;;20.95;61.58;100087.84;5057994;28;764;-47
2021/07/04 00:13:54;;;;;;;;;;;;;;;20.64;60.29;100085.91;5057736;28;971;-50
2021/07/04 00:16:19;;;;;;;;;;;;;;;20.80;61.40;100089.09;5057180;28;792;-41
2021/07/04 00:18:45;;;;;;;;;;;;;;;20.94;62.38;100080.69;5057488;28;772;-45
2021/07/04 00:21:10;;;;;;;;;;;;;;;21.25;61.24;100066.81;5057382;28;1959;-41
2021/07/04 00:23:36;;;;;;;;;;;;;;;21.32;61.05;100083.72;5057447;28;815;-46
2021/07/04 00:26:02;;;;;;;;;;;;;;;21.30;61.06;100087.94;5057930;28;768;-41
2021/07/04 00:28:28;;;;;;;;;;;;;;;21.12;59.99;100082.38;5057381;28;752;-47
2021/07/04 00:30:53;;;;;;;;;;;;;;;20.60;59.95;100085.72;5056923;28;955;-43
2021/07/04 00:33:19;;;;;;;;;;;;;;;20.11;59.32;100088.38;5057498;28;784;-43
2021/07/04 00:35:44;;;;;;;;;;;;;;;19.97;58.24;100090.38;5057554;28;779;-42
2021/07/04 00:38:10;;;;;;;;;;;;;;;19.82;57.78;100083.28;5056844;28;859;-48
2021/07/04 00:40:36;;;;;;;;;;;;;;;20.40;57.77;100089.03;5057699;28;1913;-44
2021/07/04 00:43:03;;;;;;;;;;;;;;;20.64;58.77;100091.44;5039095;28;1403;-47
2021/07/04 00:45:28;;;;;;;;;;;;;;;20.75;59.53;100098.34;5055762;28;1202;-45
2021/07/04 00:47:54;;;;;;;;;;;;;;;20.88;60.01;100101.34;5056259;28;931;-50
2021/07/04 00:50:23;;;;;;;;;;;;;;;21.02;60.16;100104.78;5038492;28;1111;-40
2021/07/04 00:52:49;;;;;;;;;;;;;;;21.07;60.54;100099.13;5038003;28;1164;-44
2021/07/04 00:55:16;;;;;;;;;;;;;;;21.19;60.71;100091.00;5038644;28;1261;-50
2021/07/04 00:57:43;;;;;;;;;;;;;;;20.91;61.96;100092.41;5056146;28;814;-46
2021/07/04 01:00:10;;;;;;;;;;;;;;;20.63;62.93;100103.63;5055082;28;1030;-43
2021/07/04 01:02:35;;;;;;;;;;;;;;;20.62;59.71;100100.06;5056187;28;1910;-50
2021/07/04 01:05:03;;;;;;;;;;;;;;;20.65;62.21;100104.94;5038742;28;783;-42
2021/07/04 01:07:29;;;;;;;;;;;;;;;21.11;62.20;100111.16;5037934;28;1322;-45
2021/07/04 01:09:55;;;;;;;;;;;;;;;21.29;61.49;100113.97;5021680;28;1379;-47
2021/07/04 01:12:21;;;;;;;;;;;;;;;21.42;60.97;100109.44;5021846;28;1430;-41
2021/07/04 01:14:47;;;;;;;;;;;;;;;21.39;61.04;100104.56;5037980;28;1220;-41
2021/07/04 01:17:12;;;;;;;;;;;;;;;21.03;62.37;100111.94;5038258;28;756;-43
2021/07/04 01:19:38;;;;;;;;;;;;;;;21.11;61.50;100105.63;5055552;28;732;-47
2021/07/04 01:22:04;;;;;;;;;;;;;;;20.81;59.37;100102.59;5055810;28;1915;-45
2021/07/04 01:24:32;;;;;;;;;;;;;;;21.13;62.21;100105.31;5038083;28;1413;-45
2021/07/04 01:26:58;;;;;;;;;;;;;;;21.23;62.77;100096.72;5055733;28;733;-41
2021/07/04 01:29:24;;;;;;;;;;;;;;;21.42;61.77;100104.72;5020163;28;1117;-48
2021/07/04 01:31:51;;;;;;;;;;;;;;;21.48;61.53;100097.09;5055723;28;780;-47
2021/07/04 01:34:17;;;;;;;;;;;;;;;21.11;62.64;100099.28;5055320;28;952;-41
2021/07/04 01:36:42;;;;;;;;;;;;;;;21.19;62.46;100092.97;5055830;28;763;-47
2021/07/04 01:39:11;;;;;;;;;;;;;;;20.75;59.88;100097.50;5038013;28;1337;-40
2021/07/04 01:41:43;;;;;;;;;;;;;;;20.83;61.57;100103.09;5055378;28;1969;-42
2021/07/04 01:44:14;;;;;;;;;;;;;;;21.03;62.62;100104.47;5055320;28;978;-45
2021/07/04 01:46:40;;;;;;;;;;;;;;;21.29;61.60;100116.72;4996862;28;1188238;-45
2021/07/04 01:49:10;;;;;;;;;;;;;;;21.44;61.02;100113.50;5037872;28;1206;-40
2021/07/04 01:51:36;;;;;;;;;;;;;;;21.50;60.01;100108.63;5038419;28;1295;-55
2021/07/04 01:54:04;;;;;;;;;;;;;;;21.24;59.28;100114.94;5038580;28;1138;-43
2021/07/04 01:56:35;;;;;;;;;;;;;;;20.97;58.27;100115.97;5040760;28;1230;-42
2021/07/04 01:59:02;;;;;;;;;;;;;;;20.84;56.45;100113.00;5059240;28;991;-41
2021/07/04 02:01:38;;;;;;;;;;;;;;;20.58;55.43;100117.56;5041995;28;1981;-41
2021/07/04 02:04:05;;;;;;;;;;;;;;;20.43;54.76;100116.84;5042120;28;1272;-42
2021/07/04 02:06:34;;;;;;;;;;;;;;;20.16;54.54;100118.63;5042185;28;1362;-40
2021/07/04 02:09:01;;;;;;;;;;;;;;;20.25;54.14;100117.88;5059383;28;872;-46
2021/07/04 02:11:28;;;;;;;;;;;;;;;20.17;55.17;100122.19;5042530;28;1218;-44
2021/07/04 02:13:59;;;;;;;;;;;;;;;20.35;56.11;100136.91;5041651;28;1172;-41
2021/07/04 02:16:37;;;;;;;;;;;;;;;20.51;57.16;100126.31;5059984;28;882;-42
2021/07/04 02:19:21;;;;;;;;;;;;;;;20.51;58.01;100132.66;5041898;28;1155;-43
2021/07/04 02:21:56;;;;;;;;;;;;;;;20.72;58.22;100126.63;5041349;28;1973;-44
2021/07/04 02:24:45;;;;;;;;;;;;;;;20.76;58.46;100118.50;5049426;28;1613;-41
2021/07/04 02:27:28;;;;;;;;;;;;;;;21.00;58.46;100120.88;5059677;28;606;-41
2021/07/04 02:29:58;;;;;;;;;;;;;;;20.75;59.41;100125.97;5040628;28;1242;-45
2021/07/04 02:32:26;;;;;;;;;;;;;;;20.96;58.83;100119.91;5041956;28;1499;-44
2021/07/04 02:34:57;;;;;;;;;;;;;;;20.82;59.20;100123.56;5042029;28;1243;-44
2021/07/04 02:37:23;;;;;;;;;;;;;;;20.57;60.11;100132.53;5041427;28;1221;-49
2021/07/04 02:39:56;;;;;;;;;;;;;;;20.64;57.93;100135.66;5041397;28;1438;-45
2021/07/04 02:42:22;;;;;;;;;;;;;;;20.62;60.66;100140.66;5041676;28;1972;-41
2021/07/04 02:44:48;;;;;;;;;;;;;;;20.82;59.93;100131.06;5058274;28;1082;-40
2021/07/04 02:47:18;;;;;;;;;;;;;;;20.91;59.10;100133.84;5041732;28;1344;-39
2021/07/04 02:49:46;;;;;;;;;;;;;;;20.73;57.86;100138.47;5041552;28;1376;-43
2021/07/04 02:52:12;;;;;;;;;;;;;;;20.63;56.27;100145.84;5041280;28;1137;-42
2021/07/04 02:54:37;;;;;;;;;;;;;;;20.30;55.36;100137.03;5059125;28;1032;-43
2021/07/04 02:57:13;;;;;;;;;;;;;;;20.27;54.30;100137.69;5041420;28;1332;-40
2021/07/04 02:59:41;;;;;;;;;;;;;;;20.14;54.91;100139.38;5040801;28;1168;-51
2021/07/04 03:02:07;;;;;;;;;;;;;;;20.20;55.19;100137.31;5059098;28;1905;-42
2021/07/04 03:04:33;;;;;;;;;;;;;;;20.46;55.33;100141.06;5059048;28;713;-43
2021/07/04 03:07:00;;;;;;;;;;;;;;;20.45;56.29;100152.41;5058970;28;804;-42
2021/07/04 03:09:27;;;;;;;;;;;;;;;20.51;56.61;100154.75;5041200;28;1173;-46
2021/07/04 03:11:55;;;;;;;;;;;;;;;20.73;57.08;100166.09;5041016;28;1710;-42
2021/07/04 03:14:22;;;;;;;;;;;;;;;20.76;58.63;100162.69;5058008;28;924;-45
2021/07/04 03:16:47;;;;;;;;;;;;;;;20.85;59.48;100164.38;5058825;28;840;-53
2021/07/04 03:19:13;;;;;;;;;;;;;;;21.11;59.38;100165.63;5040659;28;1111;-48
2021/07/04 03:21:39;;;;;;;;;;;;;;;20.81;60.90;100174.44;5040417;28;1981;-46
2021/07/04 03:24:06;;;;;;;;;;;;;;;20.67;61.84;100165.41;5024398;28;1242;-53
2021/07/04 03:26:32;;;;;;;;;;;;;;;20.57;59.68;100168.44;5041011;28;1332;-49
2021/07/04 03:28:58;;;;;;;;;;;;;;;20.65;62.25;100168.47;5040171;28;1154;-52
2021/07/04 03:31:33;;;;;;;;;;;;;;;20.94;61.90;100177.44;5040232;28;1367;-52
2021/07/04 03:33:59;;;;;;;;;;;;;;;21.08;61.38;100177.31;5058384;28;815;-54
2021/07/04 03:36:29;;;;;;;;;;;;;;;21.35;60.63;100187.38;5040126;28;1453;-50
2021/07/04 03:38:55;;;;;;;;;;;;;;;21.25;60.92;100179.34;5040563;28;1317;-54
2021/07/04 03:41:21;;;;;;;;;;;;;;;21.05;61.67;100178.78;5058359;28;1927;-48
2021/07/04 03:43:46;;;;;;;;;;;;;;;20.78;62.86;100194.41;5039846;28;1292;-48
2021/07/04 03:46:12;;;;;;;;;;;;;;;20.65;60.71;100181.44;5057969;28;1176;-42
2021/07/04 03:48:42;;;;;;;;;;;;;;;20.87;61.64;100180.63;5040154;28;1506;-53
2021/07/04 03:51:16;;;;;;;;;;;;;;;21.14;62.10;100193.47;5040067;28;1139;-48
2021/07/04 03:53:43;;;;;;;;;;;;;;;21.34;61.16;100189.28;5058306;28;876;-48
2021/07/04 03:56:09;;;;;;;;;;;;;;;21.43;60.85;100189.31;5058238;28;797;-43
2021/07/04 03:58:34;;;;;;;;;;;;;;;21.48;60.79;100186.41;5056420;28;1295;-46
2021/07/04 04:01:03;;;;;;;;;;;;;;;21.13;61.69;100180.75;5039806;28;1910;-45
2021/07/04 04:03:34;;;;;;;;;;;;;;;21.18;61.83;100183.41;5040028;28;2053;-44
2021/07/04 04:06:02;;;;;;;;;;;;;;;20.95;60.64;100179.06;5039775;28;1284;-46
2021/07/04 04:08:32;;;;;;;;;;;;;;;20.63;60.36;100173.47;5058211;28;782;-43
2021/07/04 04:10:58;;;;;;;;;;;;;;;21.10;62.21;100170.34;5058121;28;764;-42
2021/07/04 04:13:25;;;;;;;;;;;;;;;21.23;61.23;100178.84;5039446;28;1429;-43
2021/07/04 04:15:58;;;;;;;;;;;;;;;21.26;61.42;100179.00;5039216;28;1273;-42
2021/07/04 04:18:28;;;;;;;;;;;;;;;21.63;60.26;100170.53;5056484;28;1524;-43
2021/07/04 04:20:55;;;;;;;;;;;;;;;21.51;60.70;100176.66;5039583;28;1913;-47
2021/07/04 04:23:22;;;;;;;;;;;;;;;21.16;61.87;100173.78;5022881;28;1222;-51
2021/07/04 04:25:47;;;;;;;;;;;;;;;21.17;61.66;100170.69;5037454;28;796;-49
2021/07/04 04:28:13;;;;;;;;;;;;;;;20.63;59.96;100172.69;5037263;28;816;-44
2021/07/04 04:30:38;;;;;;;;;;;;;;;21.09;61.13;100165.94;5053246;28;951;-47
2021/07/04 04:33:07;;;;;;;;;;;;;;;21.20;62.42;100170.06;5039201;28;1293;-48
2021/07/04 04:35:34;;;;;;;;;;;;;;;21.59;61.06;100170.38;5039136;28;1288;-45
2021/07/04 04:38:00;;;;;;;;;;;;;;;21.70;60.57;100166.16;5057285;28;823;-43
2021/07/04 04:40:25;;;;;;;;;;;;;;;21.52;61.16;100176.38;5056897;28;821;-46
2021/07/04 04:42:51;;;;;;;;;;;;;;;21.14;62.31;100176.03;5056906;28;752;-44
2021/07/04 04:45:16;;;;;;;;;;;;;;;21.03;62.38;100164.47;5038445;28;1249;-48
2021/07/04 04:47:42;;;;;;;;;;;;;;;20.96;59.37;100167.69;5056917;28;828;-46
2021/07/04 04:50:07;;;;;;;;;;;;;;;20.90;61.25;100176.44;5056674;28;1394;-44
2021/07/04 04:52:33;;;;;;;;;;;;;;;21.31;62.41;100178.06;5056494;28;902;-47
2021/07/04 04:54:59;;;;;;;;;;;;;;;21.47;62.13;100179.25;5057065;28;815;-46
2021/07/04 04:57:24;;;;;;;;;;;;;;;21.60;61.42;100177.53;5038789;28;1107;-53
2021/07/04 04:59:49;;;;;;;;;;;;;;;21.68;60.94;100179.47;5056283;28;970;-55
2021/07/04 05:02:15;;;;;;;;;;;;;;;21.39;61.92;100187.53;5056719;28;1906;-50
2021/07/04 05:04:40;;;;;;;;;;;;;;;21.22;62.49;100175.25;5056714;28;748;-46
2021/07/04 05:07:07;;;;;;;;;;;;;;;20.98;61.38;100179.22;5022030;28;2075;-53
2021/07/04 05:09:33;;;;;;;;;;;;;;;20.79;60.18;100181.41;5038866;28;889;-47
2021/07/04 05:11:58;;;;;;;;;;;;;;;21.43;61.56;100175.47;5056731;28;772;-46
2021/07/04 05:14:24;;;;;;;;;;;;;;;21.30;61.69;100173.69;5056431;28;1112;-50
2021/07/04 05:16:49;;;;;;;;;;;;;;;21.50;61.53;100175.84;5056767;28;771;-44
2021/07/04 05:19:15;;;;;;;;;;;;;;;21.77;60.93;100165.69;5056438;28;787;-54
2021/07/04 05:21:40;;;;;;;;;;;;;;;21.09;63.40;100174.25;5056293;28;1910;-48
2021/07/04 05:24:06;;;;;;;;;;;;;;;21.13;63.49;100169.69;5056516;28;760;-47
2021/07/04 05:26:32;;;;;;;;;;;;;;;20.98;61.39;100183.94;5056418;28;804;-42
2021/07/04 05:28:58;;;;;;;;;;;;;;;21.04;60.08;100171.59;5055725;28;963;-42
2021/07/04 05:31:23;;;;;;;;;;;;;;;21.43;62.25;100183.78;5056386;28;824;-43
2021/07/04 05:33:49;;;;;;;;;;;;;;;21.60;62.44;100179.47;5055962;28;745;-43
2021/07/04 05:36:14;;;;;;;;;;;;;;;21.73;61.82;100174.94;5056213;28;780;-45
2021/07/04 05:38:42;;;;;;;;;;;;;;;21.74;61.76;100174.63;5038580;28;1385;-47
2021/07/04 05:41:07;;;;;;;;;;;;;;;21.32;62.95;100183.28;5056050;28;1968;-43
2021/07/04 05:43:33;;;;;;;;;;;;;;;21.20;63.41;100175.59;5056073;28;791;-42
2021/07/04 05:45:59;;;;;;;;;;;;;;;21.05;60.63;100183.50;5055571;28;1159;-42
2021/07/04 05:48:24;;;;;;;;;;;;;;;20.76;60.07;100182.88;5056156;28;780;-42
2021/07/04 05:50:50;;;;;;;;;;;;;;;21.20;62.66;100186.63;5056078;28;808;-42
2021/07/04 05:53:16;;;;;;;;;;;;;;;21.46;63.59;100187.88;5056199;28;828;-47
2021/07/04 05:55:41;;;;;;;;;;;;;;;21.65;62.73;100191.19;5056174;28;820;-43
2021/07/04 05:58:07;;;;;;;;;;;;;;;21.82;61.95;100187.63;5055838;28;820;-47
2021/07/04 06:00:32;;;;;;;;;;;;;;;21.45;63.00;100187.06;5055671;28;1905;-43
2021/07/04 06:02:58;;;;;;;;;;;;;;;21.32;63.23;100182.44;5038013;28;1759;-43
2021/07/04 06:05:23;;;;;;;;;;;;;;;21.13;60.32;100180.75;5055787;28;791;-43
2021/07/04 06:07:49;;;;;;;;;;;;;;;20.99;60.04;100186.38;5056920;28;768;-42
2021/07/04 06:10:14;;;;;;;;;;;;;;;21.09;63.73;100190.03;5056083;28;867;-42
2021/07/04 06:12:40;;;;;;;;;;;;;;;21.62;63.54;100180.78;5055746;28;819;-42
2021/07/04 06:15:07;;;;;;;;;;;;;;;21.69;60.76;100177.53;5055662;28;1002;-43
2021/07/04 06:17:33;;;;;;;;;;;;;;;21.69;61.92;100174.78;5055844;28;760;-42
2021/07/04 06:19:58;;;;;;;;;;;;;;;21.52;62.75;100179.13;5055616;28;776;-47
2021/07/04 06:22:23;;;;;;;;;;;;;;;21.35;63.84;100170.78;5056086;28;1906;-43
2021/07/04 06:24:49;;;;;;;;;;;;;;;21.42;62.62;100181.34;5055877;28;862;-42
2021/07/04 06:27:14;;;;;;;;;;;;;;;21.10;59.79;100170.34;5055761;28;847;-44
2021/07/04 06:29:40;;;;;;;;;;;;;;;21.02;59.90;100168.34;5055349;28;970;-43
2021/07/04 06:32:05;;;;;;;;;;;;;;;21.44;62.52;100174.34;5055384;28;820;-43
2021/07/04 06:34:31;;;;;;;;;;;;;;;21.85;63.08;100164.88;5055500;28;764;-42
2021/07/04 06:36:56;;;;;;;;;;;;;;;22.01;63.50;100176.28;5056182;28;768;-42
2021/07/04 06:39:22;;;;;;;;;;;;;;;22.00;63.20;100171.06;5055310;28;844;-42
2021/07/04 06:41:47;;;;;;;;;;;;;;;21.65;63.86;100174.59;5056339;28;1906;-43
2021/07/04 06:44:12;;;;;;;;;;;;;;;21.31;64.33;100175.31;5058789;28;927;-43
2021/07/04 06:46:51;;;;;;;;;;;;;;;20.64;61.02;100168.78;5041214;28;1246;-42
2021/07/04 06:49:16;;;;;;;;;;;;;;;20.07;59.79;100164.66;5059453;28;756;-42
2021/07/04 06:51:42;;;;;;;;;;;;;;;20.45;59.63;100166.22;5059166;28;828;-42
2021/07/04 06:54:07;;;;;;;;;;;;;;;20.66;57.62;100161.81;5059319;28;798;-42
2021/07/04 06:56:33;;;;;;;;;;;;;;;20.68;56.93;100158.78;5059211;28;823;-43
2021/07/04 06:58:58;;;;;;;;;;;;;;;20.74;56.93;100157.50;5058852;28;998;-47
2021/07/04 07:01:23;;;;;;;;;;;;;;;20.68;56.90;100156.00;5059463;28;1901;-43
2021/07/04 07:03:49;;;;;;;;;;;;;;;20.66;57.57;100148.00;5058217;28;1052;-42
2021/07/04 07:06:14;;;;;;;;;;;;;;;21.00;58.38;100145.78;5059161;28;799;-44
2021/07/04 07:08:40;;;;;;;;;;;;;;;21.23;59.74;100152.00;5051030;28;771;-43
2021/07/04 07:11:05;;;;;;;;;;;;;;;21.51;60.19;100147.03;5058759;28;778;-42
2021/07/04 07:13:31;;;;;;;;;;;;;;;21.25;62.53;100162.75;5058886;28;748;-42
2021/07/04 07:15:56;;;;;;;;;;;;;;;21.36;63.01;100161.31;5058404;28;1006;-47
2021/07/04 07:18:21;;;;;;;;;;;;;;;21.02;61.30;100157.31;5058411;28;863;-42
2021/07/04 07:20:47;;;;;;;;;;;;;;;20.94;58.58;100147.81;5058786;28;1913;-42
2021/07/04 07:23:12;;;;;;;;;;;;;;;21.45;61.73;100159.41;5058966;28;796;-43
2021/07/04 07:25:41;;;;;;;;;;;;;;;21.69;63.67;100147.09;5057810;28;863;-43
2021/07/04 07:28:07;;;;;;;;;;;;;;;22.06;63.75;100153.13;5058680;28;887;-42
2021/07/04 07:30:38;;;;;;;;;;;;;;;22.09;63.76;100151.69;5058024;28;1014;-43
2021/07/04 07:33:04;;;;;;;;;;;;;;;21.70;64.81;100138.47;5040295;28;1334;-42
2021/07/04 07:35:32;;;;;;;;;;;;;;;21.75;64.74;100154.09;5058794;28;744;-42
2021/07/04 07:38:01;;;;;;;;;;;;;;;21.26;60.97;100150.56;5058336;28;851;-44
2021/07/04 07:40:26;;;;;;;;;;;;;;;20.37;58.15;100148.47;5058072;28;863;-44
2021/07/04 07:42:53;;;;;;;;;;;;;;;19.83;59.80;100149.19;5058424;28;1971;-43
2021/07/04 07:45:18;;;;;;;;;;;;;;;19.83;57.36;100138.16;5057624;28;1028;-42
2021/07/04 07:47:48;;;;;;;;;;;;;;;19.85;55.95;100137.03;5057839;28;952;-47
2021/07/04 07:50:14;;;;;;;;;;;;;;;20.29;58.22;100140.94;5058154;28;812;-43
2021/07/04 07:52:39;;;;;;;;;;;;;;;20.58;59.89;100145.19;5057845;28;823;-43
2021/07/04 07:55:05;;;;;;;;;;;;;;;20.99;60.53;100135.84;5057240;28;788;-44
2021/07/04 07:57:35;;;;;;;;;;;;;;;21.23;61.01;100129.88;5040211;28;1388;-44
2021/07/04 08:00:01;;;;;;;;;;;;;;;21.48;61.11;100133.84;5057741;28;959;-45
2021/07/04 08:02:26;;;;;;;;;;;;;;;21.49;61.58;100123.59;5057769;28;1910;-44
2021/07/04 08:04:53;;;;;;;;;;;;;;;21.12;63.29;100134.09;5023697;28;1107;-50
2021/07/04 08:07:19;;;;;;;;;;;;;;;21.31;63.26;100131.06;5006865;28;1132;-49
2021/07/04 08:09:44;;;;;;;;;;;;;;;21.08;61.89;100127.56;5005929;28;990;-51
2021/07/04 08:12:10;;;;;;;;;;;;;;;20.72;59.96;100132.16;5058119;28;791;-49
2021/07/04 08:14:46;;;;;;;;;;;;;;;21.19;62.43;100128.91;5039417;28;1098;-53
2021/07/04 08:17:11;;;;;;;;;;;;;;;21.18;65.39;100130.88;5039174;28;860;-51
2021/07/04 08:19:37;;;;;;;;;;;;;;;21.60;64.77;100129.66;5023202;28;1771;-55
2021/07/04 08:22:02;;;;;;;;;;;;;;;21.68;64.19;100134.41;5039298;28;1910;-47
2021/07/04 08:24:28;;;;;;;;;;;;;;;21.31;64.37;100140.16;5022829;28;920;-48
2021/07/04 08:26:54;;;;;;;;;;;;;;;21.20;64.69;100136.88;5057500;28;764;-49
2021/07/04 08:29:20;;;;;;;;;;;;;;;21.11;62.04;100138.81;5057103;28;1010;-50
2021/07/04 08:31:45;;;;;;;;;;;;;;;20.98;62.23;100135.00;5039355;28;1691;-50
2021/07/04 08:34:11;;;;;;;;;;;;;;;21.69;63.38;100139.63;5039247;28;916;-53
2021/07/04 08:36:36;;;;;;;;;;;;;;;21.82;64.53;100145.31;5057215;28;775;-52
2021/07/04 08:39:02;;;;;;;;;;;;;;;22.12;63.42;100142.72;5039105;28;831;-54
2021/07/04 08:41:28;;;;;;;;;;;;;;;21.43;64.62;100144.25;5056878;28;1963;-53
2021/07/04 08:43:53;;;;;;;;;;;;;;;21.41;64.79;100154.84;5056965;28;982;-51
2021/07/04 08:46:19;;;;;;;;;;;;;;;21.12;61.97;100151.47;5056678;28;1158;-54
2021/07/04 08:48:44;;;;;;;;;;;;;;;21.04;59.64;100149.50;5057075;28;812;-51
2021/07/04 08:51:10;;;;;;;;;;;;;;;21.38;62.24;100159.06;5057278;28;776;-50
2021/07/04 08:53:35;;;;;;;;;;;;;;;21.69;63.34;100155.41;5056807;28;827;-48
2021/07/04 08:56:01;;;;;;;;;;;;;;;21.91;63.77;100159.16;5056923;28;784;-54
2021/07/04 08:58:26;;;;;;;;;;;;;;;21.95;63.23;100154.59;5056937;28;803;-54
2021/07/04 09:01:10;;;;;;;;;;;;;;;21.51;63.42;100163.63;5056333;28;1905;-55
2021/07/04 09:03:36;;;;;;;;;;;;;;;21.39;63.63;100180.03;5056757;28;859;-52
2021/07/04 09:06:01;;;;;;;;;;;;;;;20.97;62.03;100168.50;5038799;28;924;-51
2021/07/04 09:08:27;;;;;;;;;;;;;;;20.75;60.95;100170.19;5056306;28;798;-52
2021/07/04 09:11:07;;;;;;;;;;;;;;;21.33;63.20;100182.13;5056586;28;820;-48
2021/07/04 09:13:33;;;;;;;;;;;;;;;21.53;63.92;100175.25;5056880;28;803;-49
2021/07/04 09:16:05;;;;;;;;;;;;;;;21.87;62.98;100170.09;5055772;28;947;-52
2021/07/04 09:18:31;;;;;;;;;;;;;;;21.81;62.69;100172.19;5056585;28;863;-50
2021/07/04 09:20:56;;;;;;;;;;;;;;;21.45;63.00;100164.13;5056298;28;1910;-45
2021/07/04 09:23:34;;;;;;;;;;;;;;;21.14;64.18;100165.81;5056326;28;741;-50
2021/07/04 09:26:00;;;;;;;;;;;;;;;20.98;61.69;100170.13;5056559;28;792;-51
2021/07/04 09:28:25;;;;;;;;;;;;;;;21.23;62.50;100174.13;5056694;28;811;-45
2021/07/04 09:30:51;;;;;;;;;;;;;;;21.67;63.03;100165.97;5055734;28;954;-50
2021/07/04 09:33:23;;;;;;;;;;;;;;;21.83;62.32;100161.59;5056414;28;855;-56
2021/07/04 09:35:53;;;;;;;;;;;;;;;21.94;61.62;100164.88;5056449;28;820;-54
2021/07/04 09:38:19;;;;;;;;;;;;;;;21.35;62.95;100165.25;5055659;28;842;-53
2021/07/04 09:40:44;;;;;;;;;;;;;;;21.25;63.48;100159.97;5056185;28;1963;-56
2021/07/04 09:43:16;;;;;;;;;;;;;;;20.99;60.85;100155.19;5056236;28;829;-53
2021/07/04 09:45:52;;;;;;;;;;;;;;;20.81;61.83;100163.38;5055302;28;1230;-54
2021/07/04 09:48:18;;;;;;;;;;;;;;;21.44;62.99;100151.44;5056042;28;780;-56
2021/07/04 09:50:44;;;;;;;;;;;;;;;21.57;61.62;100144.16;5055917;28;807;-54
2021/07/04 09:53:10;;;;;;;;;;;;;;;21.60;62.20;100143.50;5055518;28;542;-52
2021/07/04 09:55:35;;;;;;;;;;;;;;;21.87;61.64;100132.13;5056479;28;824;-56
2021/07/04 09:58:05;;;;;;;;;;;;;;;21.65;62.19;100135.06;5056346;28;756;-50
2021/07/04 10:00:31;;;;;;;;;;;;;;;21.28;64.06;100128.91;5055244;28;1014;-53
2021/07/04 10:03:18;;;;;;;;;;;;;;;21.34;62.36;100130.41;5056162;28;1906;-52
2021/07/04 10:06:02;;;;;;;;;;;;;;;21.03;62.04;100126.56;5056277;28;851;-53
2021/07/04 10:08:32;;;;;;;;;;;;;;;21.16;62.96;100141.41;5037639;28;1302;-54
2021/07/04 10:11:04;;;;;;;;;;;;;;;21.18;63.80;100139.16;5055629;28;839;-55
2021/07/04 10:13:29;;;;;;;;;;;;;;;21.02;64.02;100140.72;5056088;28;811;-54
2021/07/04 10:15:55;;;;;;;;;;;;;;;21.13;64.89;100139.28;5055487;28;1002;-55
2021/07/04 10:18:21;;;;;;;;;;;;;;;21.27;63.76;100135.59;5058966;28;982;-54
2021/07/04 10:20:46;;;;;;;;;;;;;;;21.10;64.38;100131.66;5059715;28;1969;-54
2021/07/04 10:23:16;;;;;;;;;;;;;;;20.78;64.77;100119.81;5041814;28;1297;-48
2021/07/04 10:25:43;;;;;;;;;;;;;;;20.93;64.60;100126.03;5059828;28;819;-54
2021/07/04 10:28:09;;;;;;;;;;;;;;;20.90;64.79;100127.50;5059571;28;539;-54
2021/07/04 10:30:34;;;;;;;;;;;;;;;21.15;63.86;100125.97;5024237;28;1969;-45
2021/07/04 10:33:21;;;;;;;;;;;;;;;20.98;65.30;100123.16;5041750;28;815;-49
2021/07/04 10:35:50;;;;;;;;;;;;;;;20.87;65.26;100116.28;5059422;28;796;-47
2021/07/04 10:38:16;;;;;;;;;;;;;;;20.92;65.06;100119.72;5041188;28;801;-49
2021/07/04 10:40:41;;;;;;;;;;;;;;;20.83;65.14;100107.78;5059329;28;1906;-48
2021/07/04 10:43:07;;;;;;;;;;;;;;;20.82;66.04;100107.00;5041194;28;872;-52
2021/07/04 10:45:37;;;;;;;;;;;;;;;21.00;65.44;100104.31;5058561;28;1252;-56
2021/07/04 10:48:21;;;;;;;;;;;;;;;20.73;66.66;100097.84;5059239;28;788;-52
2021/07/04 10:51:05;;;;;;;;;;;;;;;21.02;64.83;100093.72;5059259;28;744;-47
2021/07/04 10:53:41;;;;;;;;;;;;;;;20.68;64.71;100086.94;5059105;28;818;-49
2021/07/04 10:56:29;;;;;;;;;;;;;;;20.95;65.37;100085.09;5041860;28;883;-56
2021/07/04 10:59:24;;;;;;;;;;;;;;;20.89;65.21;100083.59;5058585;28;1014;-53
2021/07/04 11:01:50;;;;;;;;;;;;;;;20.77;66.10;100082.25;5041710;28;1979;-46
2021/07/04 11:04:27;;;;;;;;;;;;;;;20.68;66.24;100084.19;5059607;28;763;-50
2021/07/04 11:06:57;;;;;;;;;;;;;;;20.88;66.11;100068.97;5058876;28;826;-50
2021/07/04 11:09:22;;;;;;;;;;;;;;;20.91;65.62;100084.09;5024170;28;1033;-51
2021/07/04 11:11:47;;;;;;;;;;;;;;;20.92;64.60;100086.53;5059095;28;823;-53
2021/07/04 11:14:13;;;;;;;;;;;;;;;20.89;65.20;100084.44;5057936;28;994;-55
2021/07/04 11:16:38;;;;;;;;;;;;;;;21.11;64.98;100083.53;5058951;28;772;-49
2021/07/04 11:19:05;;;;;;;;;;;;;;;20.84;66.20;100082.59;5040598;28;1349;-48
2021/07/04 11:21:47;;;;;;;;;;;;;;;20.94;66.39;100080.69;5023186;28;1981;-57
2021/07/04 11:24:12;;;;;;;;;;;;;;;21.03;65.51;100082.34;5059077;28;832;-55
2021/07/04 11:26:38;;;;;;;;;;;;;;;20.67;66.10;100096.31;5058961;28;795;-53
2021/07/04 11:29:09;;;;;;;;;;;;;;;20.87;66.35;100088.63;5022229;28;1042;-49
2021/07/04 11:31:35;;;;;;;;;;;;;;;20.90;65.62;100093.53;5040513;28;835;-52
2021/07/04 11:34:04;;;;;;;;;;;;;;;20.87;66.13;100099.69;5058415;28;906;-49
2021/07/04 11:36:30;;;;;;;;;;;;;;;20.91;65.42;100103.44;5058038;28;851;-49
2021/07/04 11:38:57;;;;;;;;;;;;;;;20.97;64.47;100094.69;5058568;28;764;-59
2021/07/04 11:41:28;;;;;;;;;;;;;;;20.80;65.56;100097.38;5040250;28;1985;-56
2021/07/04 11:44:04;;;;;;;;;;;;;;;20.93;66.02;100096.47;5057421;28;915;-52
2021/07/04 11:46:33;;;;;;;;;;;;;;;20.90;66.13;100107.34;5058299;28;1176;-53
2021/07/04 11:48:59;;;;;;;;;;;;;;;21.00;66.42;100096.81;5058068;28;752;-53
2021/07/04 11:51:27;;;;;;;;;;;;;;;20.72;66.60;100101.75;5058098;28;792;-46
2021/07/04 11:53:54;;;;;;;;;;;;;;;20.82;63.65;100107.00;5058564;28;780;-53
2021/07/04 11:56:19;;;;;;;;;;;;;;;20.67;66.16;100101.84;5058285;28;768;-55
2021/07/04 11:58:45;;;;;;;;;;;;;;;20.71;65.73;100102.06;5057325;28;963;-48
2021/07/04 12:01:14;;;;;;;;;;;;;;;20.73;65.82;100102.56;5058283;28;1910;-48
2021/07/04 12:03:39;;;;;;;;;;;;;;;20.93;66.14;100095.63;5057990;28;811;-53
2021/07/04 12:06:05;;;;;;;;;;;;;;;20.95;66.04;100096.16;5057697;28;823;-51
2021/07/04 12:08:49;;;;;;;;;;;;;;;20.85;66.26;100100.81;5057974;28;776;-50
2021/07/04 12:11:14;;;;;;;;;;;;;;;21.00;65.04;100096.00;5057739;28;1035;-50
2021/07/04 12:13:40;;;;;;;;;;;;;;;21.03;66.05;100095.38;5057631;28;803;-47
2021/07/04 12:16:05;;;;;;;;;;;;;;;20.99;65.27;100089.66;5057462;28;991;-45
2021/07/04 12:18:35;;;;;;;;;;;;;;;21.00;65.88;100087.72;5039603;28;1319;-48
2021/07/04 12:21:00;;;;;;;;;;;;;;;20.82;65.64;100081.31;5057322;28;1909;-51
2021/07/04 12:23:26;;;;;;;;;;;;;;;21.10;65.22;100076.34;5057400;28;515;-51
2021/07/04 12:25:51;;;;;;;;;;;;;;;21.12;64.54;100076.84;5039636;28;776;-52
2021/07/04 12:28:17;;;;;;;;;;;;;;;21.02;66.17;100066.91;5039485;28;1321;-48
2021/07/04 12:30:46;;;;;;;;;;;;;;;21.10;65.25;100065.31;5056876;28;999;-51
2021/07/04 12:33:15;;;;;;;;;;;;;;;21.01;65.51;100075.50;5057354;28;777;-54
2021/07/04 12:35:40;;;;;;;;;;;;;;;21.04;65.16;100072.09;5056903;28;763;-48
2021/07/04 12:38:26;;;;;;;;;;;;;;;21.06;65.82;100064.31;5057156;28;812;-50
2021/07/04 12:40:52;;;;;;;;;;;;;;;21.07;65.06;100054.91;5055983;28;1902;-52
2021/07/04 12:43:19;;;;;;;;;;;;;;;20.98;65.12;100051.28;5057165;28;827;-50
2021/07/04 12:45:46;;;;;;;;;;;;;;;21.12;65.73;100051.97;5035023;28;998;-48
2021/07/04 12:48:11;;;;;;;;;;;;;;;21.06;65.83;100042.19;5037165;28;820;-49
2021/07/04 12:50:43;;;;;;;;;;;;;;;21.17;65.60;100051.81;5035038;28;872;-51
2021/07/04 12:53:08;;;;;;;;;;;;;;;21.18;65.20;100047.09;5037052;28;804;-50
2021/07/04 12:55:38;;;;;;;;;;;;;;;20.93;64.69;100043.13;5037513;28;820;-54